sensor_id;sensor_type;location;lat;lon;timestamp;P1;durP1;ratioP1;P2;durP2;ratioP2
71867;SDS011;59738;48.324;14.230;2023-02-21T00:00:16;3.28;;;1.90;;
71867;SDS011;59738;48.324;14.230;2023-02-21T00:03:01;4.53;;;2.53;;
71867;SDS011;59738;48.324;14.230;2023-02-21T00:05:45;2.50;;;2.08;;
71867;SDS011;59738;48.324;14.230;2023-02-21T00:08:32;5.53;;;1.97;;
71867;SDS011;59738;48.324;14.230;2023-02-21T00:11:17;3.50;;;1.90;;
71867;SDS011;59738;48.324;14.230;2023-02-21T00:14:02;5.40;;;2.63;;
71867;SDS011;59738;48.324;14.230;2023-02-21T00:16:47;6.18;;;2.50;;
71867;SDS011;59738;48.324;14.230;2023-02-21T00:19:32;2.50;;;2.30;;
71867;SDS011;59738;48.324;14.230;2023-02-21T00:22:17;2.57;;;2.30;;
71867;SDS011;59738;48.324;14.230;2023-02-21T00:25:04;2.47;;;2.00;;
71867;SDS011;59738;48.324;14.230;2023-02-21T00:27:49;3.95;;;2.05;;
71867;SDS011;59738;48.324;14.230;2023-02-21T00:30:34;4.15;;;2.38;;
71867;SDS011;59738;48.324;14.230;2023-02-21T00:33:20;2.58;;;1.83;;
71867;SDS011;59738;48.324;14.230;2023-02-21T00:36:06;2.40;;;1.77;;
71867;SDS011;59738;48.324;14.230;2023-02-21T00:38:51;2.40;;;1.90;;
71867;SDS011;59738;48.324;14.230;2023-02-21T00:41:38;3.63;;;2.00;;
71867;SDS011;59738;48.324;14.230;2023-02-21T00:44:23;3.53;;;2.13;;
71867;SDS011;59738;48.324;14.230;2023-02-21T00:47:08;3.97;;;2.10;;
71867;SDS011;59738;48.324;14.230;2023-02-21T00:49:55;2.03;;;1.60;;
71867;SDS011;59738;48.324;14.230;2023-02-21T00:52:39;3.10;;;1.92;;
71867;SDS011;59738;48.324;14.230;2023-02-21T00:55:24;5.95;;;1.98;;
71867;SDS011;59738;48.324;14.230;2023-02-21T00:58:11;1.80;;;1.70;;
71867;SDS011;59738;48.324;14.230;2023-02-21T01:00:56;2.22;;;2.03;;
71867;SDS011;59738;48.324;14.230;2023-02-21T01:03:41;4.47;;;2.20;;
71867;SDS011;59738;48.324;14.230;2023-02-21T01:06:26;2.90;;;2.00;;
71867;SDS011;59738;48.324;14.230;2023-02-21T01:09:11;2.55;;;2.17;;
71867;SDS011;59738;48.324;14.230;2023-02-21T01:11:56;2.13;;;1.92;;
71867;SDS011;59738;48.324;14.230;2023-02-21T01:14:43;2.97;;;1.92;;
71867;SDS011;59738;48.324;14.230;2023-02-21T01:17:28;3.00;;;1.90;;
71867;SDS011;59738;48.324;14.230;2023-02-21T01:20:13;3.13;;;2.15;;
71867;SDS011;59738;48.324;14.230;2023-02-21T01:22:58;2.75;;;2.30;;
71867;SDS011;59738;48.324;14.230;2023-02-21T01:25:43;3.70;;;2.30;;
71867;SDS011;59738;48.324;14.230;2023-02-21T01:28:28;2.63;;;1.90;;
71867;SDS011;59738;48.324;14.230;2023-02-21T01:31:17;4.10;;;2.20;;
71867;SDS011;59738;48.324;14.230;2023-02-21T01:34:02;4.30;;;2.20;;
71867;SDS011;59738;48.324;14.230;2023-02-21T01:36:48;2.92;;;2.20;;
71867;SDS011;59738;48.324;14.230;2023-02-21T01:39:33;2.83;;;1.83;;
71867;SDS011;59738;48.324;14.230;2023-02-21T01:42:20;4.10;;;2.38;;
71867;SDS011;59738;48.324;14.230;2023-02-21T01:45:25;4.10;;;2.20;;
71867;SDS011;59738;48.324;14.230;2023-02-21T01:48:25;2.05;;;1.90;;
71867;SDS011;59738;48.324;14.230;2023-02-21T01:51:11;3.85;;;2.30;;
71867;SDS011;59738;48.324;14.230;2023-02-21T01:53:58;3.05;;;2.40;;
71867;SDS011;59738;48.324;14.230;2023-02-21T01:56:43;3.83;;;2.17;;
71867;SDS011;59738;48.324;14.230;2023-02-21T01:59:28;3.97;;;1.90;;
71867;SDS011;59738;48.324;14.230;2023-02-21T02:02:14;4.32;;;1.90;;
71867;SDS011;59738;48.324;14.230;2023-02-21T02:05:03;2.42;;;2.10;;
71867;SDS011;59738;48.324;14.230;2023-02-21T02:07:49;5.20;;;2.33;;
71867;SDS011;59738;48.324;14.230;2023-02-21T02:10:39;4.53;;;1.88;;
71867;SDS011;59738;48.324;14.230;2023-02-21T02:13:29;1.97;;;1.70;;
71867;SDS011;59738;48.324;14.230;2023-02-21T02:16:05;2.85;;;1.90;;
71867;SDS011;59738;48.324;14.230;2023-02-21T02:18:42;2.08;;;1.60;;
71867;SDS011;59738;48.324;14.230;2023-02-21T02:21:24;3.00;;;2.08;;
71867;SDS011;59738;48.324;14.230;2023-02-21T02:24:19;2.83;;;1.98;;
71867;SDS011;59738;48.324;14.230;2023-02-21T02:26:59;2.50;;;1.70;;
71867;SDS011;59738;48.324;14.230;2023-02-21T02:30:00;2.97;;;2.00;;
71867;SDS011;59738;48.324;14.230;2023-02-21T02:33:14;7.13;;;1.90;;
71867;SDS011;59738;48.324;14.230;2023-02-21T02:36:04;3.78;;;1.77;;
71867;SDS011;59738;48.324;14.230;2023-02-21T02:38:33;2.22;;;1.90;;
71867;SDS011;59738;48.324;14.230;2023-02-21T02:41:05;6.07;;;2.33;;
71867;SDS011;59738;48.324;14.230;2023-02-21T02:43:37;3.70;;;2.22;;
71867;SDS011;59738;48.324;14.230;2023-02-21T02:46:10;2.90;;;2.15;;
71867;SDS011;59738;48.324;14.230;2023-02-21T02:48:42;5.45;;;2.10;;
71867;SDS011;59738;48.324;14.230;2023-02-21T02:51:13;3.75;;;1.90;;
71867;SDS011;59738;48.324;14.230;2023-02-21T02:53:42;2.40;;;2.00;;
71867;SDS011;59738;48.324;14.230;2023-02-21T02:56:11;4.25;;;2.40;;
71867;SDS011;59738;48.324;14.230;2023-02-21T02:58:43;3.33;;;2.20;;
71867;SDS011;59738;48.324;14.230;2023-02-21T03:01:27;2.75;;;2.20;;
71867;SDS011;59738;48.324;14.230;2023-02-21T03:04:13;3.38;;;2.15;;
71867;SDS011;59738;48.324;14.230;2023-02-21T03:06:50;3.63;;;1.70;;
71867;SDS011;59738;48.324;14.230;2023-02-21T03:09:23;5.65;;;1.75;;
71867;SDS011;59738;48.324;14.230;2023-02-21T03:11:57;3.53;;;2.00;;
71867;SDS011;59738;48.324;14.230;2023-02-21T03:14:29;3.60;;;1.80;;
71867;SDS011;59738;48.324;14.230;2023-02-21T03:17:03;5.30;;;2.22;;
71867;SDS011;59738;48.324;14.230;2023-02-21T03:19:34;2.87;;;1.77;;
71867;SDS011;59738;48.324;14.230;2023-02-21T03:22:06;3.92;;;2.30;;
71867;SDS011;59738;48.324;14.230;2023-02-21T03:24:36;3.30;;;2.00;;
71867;SDS011;59738;48.324;14.230;2023-02-21T03:27:06;4.00;;;1.80;;
71867;SDS011;59738;48.324;14.230;2023-02-21T03:29:46;3.92;;;2.15;;
71867;SDS011;59738;48.324;14.230;2023-02-21T03:32:16;7.80;;;2.50;;
71867;SDS011;59738;48.324;14.230;2023-02-21T03:34:46;3.88;;;2.05;;
71867;SDS011;59738;48.324;14.230;2023-02-21T03:37:19;3.42;;;2.22;;
71867;SDS011;59738;48.324;14.230;2023-02-21T03:39:48;3.00;;;1.88;;
71867;SDS011;59738;48.324;14.230;2023-02-21T03:42:16;4.15;;;2.00;;
71867;SDS011;59738;48.324;14.230;2023-02-21T03:44:44;2.37;;;2.17;;
71867;SDS011;59738;48.324;14.230;2023-02-21T03:47:11;4.15;;;2.17;;
71867;SDS011;59738;48.324;14.230;2023-02-21T03:49:39;6.78;;;2.22;;
71867;SDS011;59738;48.324;14.230;2023-02-21T03:52:07;2.95;;;2.20;;
71867;SDS011;59738;48.324;14.230;2023-02-21T03:54:39;4.18;;;1.88;;
71867;SDS011;59738;48.324;14.230;2023-02-21T03:57:09;2.17;;;1.90;;
71867;SDS011;59738;48.324;14.230;2023-02-21T03:59:43;3.53;;;2.28;;
71867;SDS011;59738;48.324;14.230;2023-02-21T04:02:12;2.38;;;2.10;;
71867;SDS011;59738;48.324;14.230;2023-02-21T04:04:41;3.42;;;2.22;;
71867;SDS011;59738;48.324;14.230;2023-02-21T04:07:13;3.08;;;2.20;;
71867;SDS011;59738;48.324;14.230;2023-02-21T04:09:43;4.00;;;2.33;;
71867;SDS011;59738;48.324;14.230;2023-02-21T04:12:15;2.33;;;2.13;;
71867;SDS011;59738;48.324;14.230;2023-02-21T04:14:43;4.57;;;2.20;;
71867;SDS011;59738;48.324;14.230;2023-02-21T04:17:11;3.30;;;2.17;;
71867;SDS011;59738;48.324;14.230;2023-02-21T04:19:39;5.13;;;2.15;;
71867;SDS011;59738;48.324;14.230;2023-02-21T04:22:07;3.27;;;1.90;;
71867;SDS011;59738;48.324;14.230;2023-02-21T04:24:34;2.13;;;1.92;;
71867;SDS011;59738;48.324;14.230;2023-02-21T04:27:05;3.35;;;2.10;;
71867;SDS011;59738;48.324;14.230;2023-02-21T04:29:35;2.75;;;2.25;;
71867;SDS011;59738;48.324;14.230;2023-02-21T04:32:03;3.67;;;2.40;;
71867;SDS011;59738;48.324;14.230;2023-02-21T04:34:32;6.20;;;2.10;;
71867;SDS011;59738;48.324;14.230;2023-02-21T04:37:00;3.97;;;1.98;;
71867;SDS011;59738;48.324;14.230;2023-02-21T04:39:27;2.42;;;1.80;;
71867;SDS011;59738;48.324;14.230;2023-02-21T04:41:55;5.18;;;2.10;;
71867;SDS011;59738;48.324;14.230;2023-02-21T04:44:24;3.10;;;1.80;;
71867;SDS011;59738;48.324;14.230;2023-02-21T04:46:51;5.07;;;2.00;;
71867;SDS011;59738;48.324;14.230;2023-02-21T04:49:19;3.90;;;1.88;;
71867;SDS011;59738;48.324;14.230;2023-02-21T04:51:50;4.53;;;2.00;;
71867;SDS011;59738;48.324;14.230;2023-02-21T04:54:17;2.55;;;1.98;;
71867;SDS011;59738;48.324;14.230;2023-02-21T04:56:44;2.72;;;2.10;;
71867;SDS011;59738;48.324;14.230;2023-02-21T04:59:12;4.57;;;1.90;;
71867;SDS011;59738;48.324;14.230;2023-02-21T05:01:41;5.20;;;2.10;;
71867;SDS011;59738;48.324;14.230;2023-02-21T05:04:08;3.55;;;2.25;;
71867;SDS011;59738;48.324;14.230;2023-02-21T05:06:36;3.70;;;2.15;;
71867;SDS011;59738;48.324;14.230;2023-02-21T05:09:03;8.48;;;2.10;;
71867;SDS011;59738;48.324;14.230;2023-02-21T05:11:31;4.87;;;2.27;;
71867;SDS011;59738;48.324;14.230;2023-02-21T05:14:00;2.95;;;2.10;;
71867;SDS011;59738;48.324;14.230;2023-02-21T05:16:28;3.25;;;2.33;;
71867;SDS011;59738;48.324;14.230;2023-02-21T05:18:57;8.85;;;2.10;;
71867;SDS011;59738;48.324;14.230;2023-02-21T05:21:24;3.95;;;2.00;;
71867;SDS011;59738;48.324;14.230;2023-02-21T05:23:52;3.70;;;2.07;;
71867;SDS011;59738;48.324;14.230;2023-02-21T05:26:23;3.33;;;2.40;;
71867;SDS011;59738;48.324;14.230;2023-02-21T05:28:51;5.72;;;2.38;;
71867;SDS011;59738;48.324;14.230;2023-02-21T05:31:19;3.17;;;2.30;;
71867;SDS011;59738;48.324;14.230;2023-02-21T05:33:47;5.97;;;2.30;;
71867;SDS011;59738;48.324;14.230;2023-02-21T05:36:16;2.97;;;2.10;;
71867;SDS011;59738;48.324;14.230;2023-02-21T05:38:44;2.70;;;2.10;;
71867;SDS011;59738;48.324;14.230;2023-02-21T05:41:12;3.92;;;2.47;;
71867;SDS011;59738;48.324;14.230;2023-02-21T05:43:41;3.72;;;2.42;;
71867;SDS011;59738;48.324;14.230;2023-02-21T05:46:16;5.30;;;2.10;;
71867;SDS011;59738;48.324;14.230;2023-02-21T05:48:44;3.33;;;2.47;;
71867;SDS011;59738;48.324;14.230;2023-02-21T05:51:12;4.25;;;2.47;;
71867;SDS011;59738;48.324;14.230;2023-02-21T05:53:41;4.47;;;2.33;;
71867;SDS011;59738;48.324;14.230;2023-02-21T05:56:08;2.40;;;2.20;;
71867;SDS011;59738;48.324;14.230;2023-02-21T05:58:36;6.03;;;2.28;;
71867;SDS011;59738;48.324;14.230;2023-02-21T06:01:04;6.53;;;2.60;;
71867;SDS011;59738;48.324;14.230;2023-02-21T06:03:31;6.20;;;2.30;;
71867;SDS011;59738;48.324;14.230;2023-02-21T06:05:59;7.13;;;2.78;;
71867;SDS011;59738;48.324;14.230;2023-02-21T06:08:26;5.22;;;2.40;;
71867;SDS011;59738;48.324;14.230;2023-02-21T06:10:55;3.17;;;2.33;;
71867;SDS011;59738;48.324;14.230;2023-02-21T06:13:23;8.30;;;2.90;;
71867;SDS011;59738;48.324;14.230;2023-02-21T06:15:50;5.53;;;2.67;;
71867;SDS011;59738;48.324;14.230;2023-02-21T06:18:18;4.00;;;2.53;;
71867;SDS011;59738;48.324;14.230;2023-02-21T06:20:45;4.50;;;2.28;;
71867;SDS011;59738;48.324;14.230;2023-02-21T06:23:12;2.80;;;2.10;;
71867;SDS011;59738;48.324;14.230;2023-02-21T06:25:40;3.07;;;2.20;;
71867;SDS011;59738;48.324;14.230;2023-02-21T06:28:09;4.70;;;2.30;;
71867;SDS011;59738;48.324;14.230;2023-02-21T06:30:36;2.67;;;2.30;;
71867;SDS011;59738;48.324;14.230;2023-02-21T06:33:04;9.52;;;2.90;;
71867;SDS011;59738;48.324;14.230;2023-02-21T06:35:31;6.30;;;2.20;;
71867;SDS011;59738;48.324;14.230;2023-02-21T06:37:58;6.50;;;2.70;;
71867;SDS011;59738;48.324;14.230;2023-02-21T06:40:26;5.22;;;2.55;;
71867;SDS011;59738;48.324;14.230;2023-02-21T06:42:53;6.28;;;2.50;;
71867;SDS011;59738;48.324;14.230;2023-02-21T06:45:22;5.32;;;2.60;;
71867;SDS011;59738;48.324;14.230;2023-02-21T06:47:50;3.78;;;2.40;;
71867;SDS011;59738;48.324;14.230;2023-02-21T06:50:17;3.90;;;2.37;;
71867;SDS011;59738;48.324;14.230;2023-02-21T06:52:45;7.78;;;2.70;;
71867;SDS011;59738;48.324;14.230;2023-02-21T06:55:12;3.88;;;2.47;;
71867;SDS011;59738;48.324;14.230;2023-02-21T06:57:40;5.15;;;2.70;;
71867;SDS011;59738;48.324;14.230;2023-02-21T07:00:08;3.38;;;2.40;;
71867;SDS011;59738;48.324;14.230;2023-02-21T07:02:38;4.73;;;2.80;;
71867;SDS011;59738;48.324;14.230;2023-02-21T07:05:06;7.47;;;2.63;;
71867;SDS011;59738;48.324;14.230;2023-02-21T07:07:34;9.27;;;2.50;;
71867;SDS011;59738;48.324;14.230;2023-02-21T07:10:02;6.68;;;2.92;;
71867;SDS011;59738;48.324;14.230;2023-02-21T07:12:30;3.40;;;2.58;;
71867;SDS011;59738;48.324;14.230;2023-02-21T07:14:58;4.73;;;2.50;;
71867;SDS011;59738;48.324;14.230;2023-02-21T07:17:26;6.07;;;2.80;;
71867;SDS011;59738;48.324;14.230;2023-02-21T07:19:55;5.07;;;2.50;;
71867;SDS011;59738;48.324;14.230;2023-02-21T07:22:23;4.22;;;2.47;;
71867;SDS011;59738;48.324;14.230;2023-02-21T07:24:51;4.60;;;2.75;;
71867;SDS011;59738;48.324;14.230;2023-02-21T07:27:19;6.17;;;2.50;;
71867;SDS011;59738;48.324;14.230;2023-02-21T07:29:47;4.97;;;2.10;;
71867;SDS011;59738;48.324;14.230;2023-02-21T07:32:16;6.20;;;2.67;;
71867;SDS011;59738;48.324;14.230;2023-02-21T07:34:43;9.88;;;2.60;;
71867;SDS011;59738;48.324;14.230;2023-02-21T07:37:13;4.55;;;2.58;;
71867;SDS011;59738;48.324;14.230;2023-02-21T07:39:41;4.67;;;2.70;;
71867;SDS011;59738;48.324;14.230;2023-02-21T07:42:08;5.00;;;2.55;;
71867;SDS011;59738;48.324;14.230;2023-02-21T07:44:38;6.63;;;3.00;;
71867;SDS011;59738;48.324;14.230;2023-02-21T07:47:06;6.30;;;2.67;;
71867;SDS011;59738;48.324;14.230;2023-02-21T07:49:36;7.32;;;2.72;;
71867;SDS011;59738;48.324;14.230;2023-02-21T07:52:04;3.53;;;2.60;;
71867;SDS011;59738;48.324;14.230;2023-02-21T07:54:33;6.30;;;2.70;;
71867;SDS011;59738;48.324;14.230;2023-02-21T07:57:01;4.47;;;3.05;;
71867;SDS011;59738;48.324;14.230;2023-02-21T07:59:29;9.85;;;3.53;;
71867;SDS011;59738;48.324;14.230;2023-02-21T08:01:57;8.75;;;2.88;;
71867;SDS011;59738;48.324;14.230;2023-02-21T08:04:24;5.80;;;2.60;;
71867;SDS011;59738;48.324;14.230;2023-02-21T08:06:57;8.00;;;2.92;;
71867;SDS011;59738;48.324;14.230;2023-02-21T08:09:25;5.50;;;3.13;;
71867;SDS011;59738;48.324;14.230;2023-02-21T08:11:54;6.03;;;2.90;;
71867;SDS011;59738;48.324;14.230;2023-02-21T08:14:22;8.23;;;3.28;;
71867;SDS011;59738;48.324;14.230;2023-02-21T08:16:49;10.00;;;3.27;;
71867;SDS011;59738;48.324;14.230;2023-02-21T08:19:17;6.30;;;3.10;;
71867;SDS011;59738;48.324;14.230;2023-02-21T08:21:45;6.65;;;2.72;;
71867;SDS011;59738;48.324;14.230;2023-02-21T08:24:13;5.13;;;3.30;;
71867;SDS011;59738;48.324;14.230;2023-02-21T08:26:41;8.07;;;3.40;;
71867;SDS011;59738;48.324;14.230;2023-02-21T08:29:11;7.13;;;3.37;;
71867;SDS011;59738;48.324;14.230;2023-02-21T08:31:40;7.90;;;3.15;;
71867;SDS011;59738;48.324;14.230;2023-02-21T08:34:09;5.93;;;3.25;;
71867;SDS011;59738;48.324;14.230;2023-02-21T08:36:38;5.60;;;2.95;;
71867;SDS011;59738;48.324;14.230;2023-02-21T08:39:06;8.05;;;3.20;;
71867;SDS011;59738;48.324;14.230;2023-02-21T08:41:35;4.87;;;3.10;;
71867;SDS011;59738;48.324;14.230;2023-02-21T08:44:03;7.07;;;3.05;;
71867;SDS011;59738;48.324;14.230;2023-02-21T08:46:32;6.93;;;3.05;;
71867;SDS011;59738;48.324;14.230;2023-02-21T08:49:01;6.43;;;3.45;;
71867;SDS011;59738;48.324;14.230;2023-02-21T08:51:29;7.30;;;3.30;;
71867;SDS011;59738;48.324;14.230;2023-02-21T08:53:58;5.63;;;2.80;;
71867;SDS011;59738;48.324;14.230;2023-02-21T08:56:26;6.53;;;3.03;;
71867;SDS011;59738;48.324;14.230;2023-02-21T08:58:55;7.15;;;2.80;;
71867;SDS011;59738;48.324;14.230;2023-02-21T09:01:23;4.72;;;2.50;;
71867;SDS011;59738;48.324;14.230;2023-02-21T09:03:57;4.93;;;2.80;;
71867;SDS011;59738;48.324;14.230;2023-02-21T09:06:24;5.43;;;2.93;;
71867;SDS011;59738;48.324;14.230;2023-02-21T09:08:52;6.10;;;3.15;;
71867;SDS011;59738;48.324;14.230;2023-02-21T09:11:20;5.43;;;2.40;;
71867;SDS011;59738;48.324;14.230;2023-02-21T09:13:47;4.68;;;2.95;;
71867;SDS011;59738;48.324;14.230;2023-02-21T09:16:14;3.38;;;2.15;;
71867;SDS011;59738;48.324;14.230;2023-02-21T09:18:42;2.27;;;1.87;;
71867;SDS011;59738;48.324;14.230;2023-02-21T09:21:11;3.13;;;1.60;;
71867;SDS011;59738;48.324;14.230;2023-02-21T09:23:38;6.95;;;1.70;;
71867;SDS011;59738;48.324;14.230;2023-02-21T09:26:06;3.40;;;2.03;;
71867;SDS011;59738;48.324;14.230;2023-02-21T09:28:33;5.13;;;1.75;;
71867;SDS011;59738;48.324;14.230;2023-02-21T09:31:08;4.27;;;1.87;;
71867;SDS011;59738;48.324;14.230;2023-02-21T09:33:35;4.68;;;1.85;;
71867;SDS011;59738;48.324;14.230;2023-02-21T09:36:06;3.78;;;1.95;;
71867;SDS011;59738;48.324;14.230;2023-02-21T09:38:35;4.80;;;2.40;;
71867;SDS011;59738;48.324;14.230;2023-02-21T09:41:07;2.97;;;2.00;;
71867;SDS011;59738;48.324;14.230;2023-02-21T09:43:36;5.17;;;2.63;;
71867;SDS011;59738;48.324;14.230;2023-02-21T09:46:08;4.07;;;2.35;;
71867;SDS011;59738;48.324;14.230;2023-02-21T09:48:37;2.75;;;1.80;;
71867;SDS011;59738;48.324;14.230;2023-02-21T09:51:05;5.57;;;2.00;;
71867;SDS011;59738;48.324;14.230;2023-02-21T09:53:37;2.88;;;1.92;;
71867;SDS011;59738;48.324;14.230;2023-02-21T09:56:06;7.77;;;2.17;;
71867;SDS011;59738;48.324;14.230;2023-02-21T09:58:37;6.78;;;2.45;;
71867;SDS011;59738;48.324;14.230;2023-02-21T10:01:08;3.45;;;2.17;;
71867;SDS011;59738;48.324;14.230;2023-02-21T10:03:49;3.97;;;1.90;;
71867;SDS011;59738;48.324;14.230;2023-02-21T10:06:25;3.83;;;1.92;;
71867;SDS011;59738;48.324;14.230;2023-02-21T10:09:00;3.17;;;2.17;;
71867;SDS011;59738;48.324;14.230;2023-02-21T10:11:33;3.88;;;2.03;;
71867;SDS011;59738;48.324;14.230;2023-02-21T10:14:17;3.88;;;2.25;;
71867;SDS011;59738;48.324;14.230;2023-02-21T10:16:50;3.65;;;2.38;;
71867;SDS011;59738;48.324;14.230;2023-02-21T10:19:20;4.72;;;2.30;;
71867;SDS011;59738;48.324;14.230;2023-02-21T10:21:51;3.50;;;2.17;;
71867;SDS011;59738;48.324;14.230;2023-02-21T10:24:21;3.88;;;2.22;;
71867;SDS011;59738;48.324;14.230;2023-02-21T10:26:51;4.53;;;1.95;;
71867;SDS011;59738;48.324;14.230;2023-02-21T10:29:25;3.70;;;2.40;;
71867;SDS011;59738;48.324;14.230;2023-02-21T10:31:54;5.13;;;2.40;;
71867;SDS011;59738;48.324;14.230;2023-02-21T10:34:24;4.47;;;2.40;;
71867;SDS011;59738;48.324;14.230;2023-02-21T10:36:54;3.65;;;2.17;;
71867;SDS011;59738;48.324;14.230;2023-02-21T10:39:26;4.75;;;2.58;;
71867;SDS011;59738;48.324;14.230;2023-02-21T10:41:59;6.90;;;2.80;;
71867;SDS011;59738;48.324;14.230;2023-02-21T10:44:28;5.72;;;2.40;;
71867;SDS011;59738;48.324;14.230;2023-02-21T10:46:59;7.23;;;2.20;;
71867;SDS011;59738;48.324;14.230;2023-02-21T10:49:30;2.88;;;1.98;;
71867;SDS011;59738;48.324;14.230;2023-02-21T10:52:04;3.08;;;2.42;;
71867;SDS011;59738;48.324;14.230;2023-02-21T10:54:36;5.75;;;2.92;;
71867;SDS011;59738;48.324;14.230;2023-02-21T10:57:05;4.88;;;2.63;;
71867;SDS011;59738;48.324;14.230;2023-02-21T10:59:34;5.37;;;2.80;;
71867;SDS011;59738;48.324;14.230;2023-02-21T11:04:52;5.03;;;2.75;;
71867;SDS011;59738;48.324;14.230;2023-02-21T11:07:21;5.45;;;2.45;;
71867;SDS011;59738;48.324;14.230;2023-02-21T11:09:50;7.10;;;3.10;;
71867;SDS011;59738;48.324;14.230;2023-02-21T11:12:22;5.43;;;2.90;;
71867;SDS011;59738;48.324;14.230;2023-02-21T11:15:04;5.22;;;2.65;;
71867;SDS011;59738;48.324;14.230;2023-02-21T11:17:36;11.27;;;2.83;;
71867;SDS011;59738;48.324;14.230;2023-02-21T11:20:09;6.30;;;1.77;;
71867;SDS011;59738;48.324;14.230;2023-02-21T11:22:43;5.05;;;2.50;;
71867;SDS011;59738;48.324;14.230;2023-02-21T11:25:17;4.23;;;2.43;;
71867;SDS011;59738;48.324;14.230;2023-02-21T11:27:58;5.53;;;2.10;;
71867;SDS011;59738;48.324;14.230;2023-02-21T11:30:30;3.20;;;1.95;;
71867;SDS011;59738;48.324;14.230;2023-02-21T11:32:59;7.00;;;2.78;;
71867;SDS011;59738;48.324;14.230;2023-02-21T11:35:27;3.55;;;2.58;;
71867;SDS011;59738;48.324;14.230;2023-02-21T11:37:56;4.13;;;2.20;;
71867;SDS011;59738;48.324;14.230;2023-02-21T11:40:28;4.68;;;2.35;;
71867;SDS011;59738;48.324;14.230;2023-02-21T11:43:10;4.32;;;2.22;;
71867;SDS011;59738;48.324;14.230;2023-02-21T11:45:52;3.90;;;2.10;;
71867;SDS011;59738;48.324;14.230;2023-02-21T11:48:28;3.50;;;2.35;;
71867;SDS011;59738;48.324;14.230;2023-02-21T11:50:59;7.07;;;2.00;;
71867;SDS011;59738;48.324;14.230;2023-02-21T11:53:34;2.70;;;2.00;;
71867;SDS011;59738;48.324;14.230;2023-02-21T11:56:06;5.93;;;2.78;;
71867;SDS011;59738;48.324;14.230;2023-02-21T11:58:40;3.78;;;2.28;;
71867;SDS011;59738;48.324;14.230;2023-02-21T12:01:11;5.63;;;2.75;;
71867;SDS011;59738;48.324;14.230;2023-02-21T12:03:49;4.07;;;2.50;;
71867;SDS011;59738;48.324;14.230;2023-02-21T12:06:23;2.67;;;2.03;;
71867;SDS011;59738;48.324;14.230;2023-02-21T12:08:57;4.35;;;2.28;;
71867;SDS011;59738;48.324;14.230;2023-02-21T12:11:34;5.55;;;2.30;;
71867;SDS011;59738;48.324;14.230;2023-02-21T12:17:09;4.30;;;2.10;;
71867;SDS011;59738;48.324;14.230;2023-02-21T12:19:45;4.10;;;2.38;;
71867;SDS011;59738;48.324;14.230;2023-02-21T12:22:22;4.00;;;2.10;;
71867;SDS011;59738;48.324;14.230;2023-02-21T12:25:01;2.55;;;1.83;;
71867;SDS011;59738;48.324;14.230;2023-02-21T12:27:37;5.43;;;2.35;;
71867;SDS011;59738;48.324;14.230;2023-02-21T12:30:17;2.23;;;1.90;;
71867;SDS011;59738;48.324;14.230;2023-02-21T12:32:55;3.25;;;2.05;;
71867;SDS011;59738;48.324;14.230;2023-02-21T12:38:19;3.20;;;1.73;;
71867;SDS011;59738;48.324;14.230;2023-02-21T12:40:51;2.13;;;1.90;;
71867;SDS011;59738;48.324;14.230;2023-02-21T12:43:30;4.40;;;1.97;;
71867;SDS011;59738;48.324;14.230;2023-02-21T12:46:06;2.88;;;2.00;;
71867;SDS011;59738;48.324;14.230;2023-02-21T12:48:40;5.07;;;2.35;;
71867;SDS011;59738;48.324;14.230;2023-02-21T12:51:12;4.57;;;2.13;;
71867;SDS011;59738;48.324;14.230;2023-02-21T12:53:44;3.45;;;2.95;;
71867;SDS011;59738;48.324;14.230;2023-02-21T12:56:16;3.23;;;2.30;;
71867;SDS011;59738;48.324;14.230;2023-02-21T12:58:49;3.92;;;2.58;;
71867;SDS011;59738;48.324;14.230;2023-02-21T13:01:20;4.13;;;2.20;;
71867;SDS011;59738;48.324;14.230;2023-02-21T13:03:53;3.20;;;2.40;;
71867;SDS011;59738;48.324;14.230;2023-02-21T13:06:24;4.82;;;2.28;;
71867;SDS011;59738;48.324;14.230;2023-02-21T13:08:57;5.50;;;2.00;;
71867;SDS011;59738;48.324;14.230;2023-02-21T13:11:30;3.83;;;2.20;;
71867;SDS011;59738;48.324;14.230;2023-02-21T13:14:01;3.78;;;1.80;;
71867;SDS011;59738;48.324;14.230;2023-02-21T13:16:30;2.53;;;1.90;;
71867;SDS011;59738;48.324;14.230;2023-02-21T13:18:59;4.18;;;2.13;;
71867;SDS011;59738;48.324;14.230;2023-02-21T13:21:32;2.73;;;2.00;;
71867;SDS011;59738;48.324;14.230;2023-02-21T13:24:05;2.05;;;1.65;;
71867;SDS011;59738;48.324;14.230;2023-02-21T13:26:43;3.55;;;2.00;;
71867;SDS011;59738;48.324;14.230;2023-02-21T13:29:19;6.55;;;2.35;;
71867;SDS011;59738;48.324;14.230;2023-02-21T13:31:54;2.72;;;2.20;;
71867;SDS011;59738;48.324;14.230;2023-02-21T13:34:25;4.57;;;1.80;;
71867;SDS011;59738;48.324;14.230;2023-02-21T13:36:59;3.92;;;1.90;;
71867;SDS011;59738;48.324;14.230;2023-02-21T13:39:29;3.20;;;1.95;;
71867;SDS011;59738;48.324;14.230;2023-02-21T13:42:04;5.53;;;2.00;;
71867;SDS011;59738;48.324;14.230;2023-02-21T13:44:37;3.15;;;2.20;;
71867;SDS011;59738;48.324;14.230;2023-02-21T13:47:11;3.57;;;1.80;;
71867;SDS011;59738;48.324;14.230;2023-02-21T13:49:44;2.50;;;1.92;;
71867;SDS011;59738;48.324;14.230;2023-02-21T13:52:27;3.30;;;2.00;;
71867;SDS011;59738;48.324;14.230;2023-02-21T13:55:24;2.38;;;1.77;;
71867;SDS011;59738;48.324;14.230;2023-02-21T14:00:52;3.47;;;2.07;;
71867;SDS011;59738;48.324;14.230;2023-02-21T14:03:31;3.97;;;2.22;;
71867;SDS011;59738;48.324;14.230;2023-02-21T14:06:22;4.22;;;1.83;;
71867;SDS011;59738;48.324;14.230;2023-02-21T14:08:52;2.85;;;2.00;;
71867;SDS011;59738;48.324;14.230;2023-02-21T14:11:23;3.03;;;2.10;;
71867;SDS011;59738;48.324;14.230;2023-02-21T14:13:53;3.73;;;2.10;;
71867;SDS011;59738;48.324;14.230;2023-02-21T14:16:24;2.13;;;1.73;;
71867;SDS011;59738;48.324;14.230;2023-02-21T14:18:54;3.35;;;2.00;;
71867;SDS011;59738;48.324;14.230;2023-02-21T14:21:24;4.03;;;1.90;;
71867;SDS011;59738;48.324;14.230;2023-02-21T14:23:54;2.35;;;1.98;;
71867;SDS011;59738;48.324;14.230;2023-02-21T14:26:34;2.07;;;1.87;;
71867;SDS011;59738;48.324;14.230;2023-02-21T14:32:22;2.83;;;1.80;;
71867;SDS011;59738;48.324;14.230;2023-02-21T14:34:52;4.53;;;1.98;;
71867;SDS011;59738;48.324;14.230;2023-02-21T14:37:22;3.03;;;2.00;;
71867;SDS011;59738;48.324;14.230;2023-02-21T14:39:52;3.10;;;2.27;;
71867;SDS011;59738;48.324;14.230;2023-02-21T14:42:24;3.58;;;2.22;;
71867;SDS011;59738;48.324;14.230;2023-02-21T14:45:12;3.15;;;1.95;;
71867;SDS011;59738;48.324;14.230;2023-02-21T14:47:58;4.30;;;2.30;;
71867;SDS011;59738;48.324;14.230;2023-02-21T14:50:35;2.75;;;2.10;;
71867;SDS011;59738;48.324;14.230;2023-02-21T14:53:10;1.83;;;1.70;;
71867;SDS011;59738;48.324;14.230;2023-02-21T14:55:57;3.35;;;1.90;;
71867;SDS011;59738;48.324;14.230;2023-02-21T14:58:43;2.42;;;1.85;;
71867;SDS011;59738;48.324;14.230;2023-02-21T15:01:23;2.53;;;1.95;;
71867;SDS011;59738;48.324;14.230;2023-02-21T15:04:10;2.10;;;1.90;;
71867;SDS011;59738;48.324;14.230;2023-02-21T15:06:42;2.07;;;1.67;;
71867;SDS011;59738;48.324;14.230;2023-02-21T15:09:12;4.05;;;1.77;;
71867;SDS011;59738;48.324;14.230;2023-02-21T15:11:44;2.10;;;1.80;;
71867;SDS011;59738;48.324;14.230;2023-02-21T15:14:13;3.47;;;1.90;;
71867;SDS011;59738;48.324;14.230;2023-02-21T15:16:48;3.17;;;2.13;;
71867;SDS011;59738;48.324;14.230;2023-02-21T15:19:20;2.17;;;1.63;;
71867;SDS011;59738;48.324;14.230;2023-02-21T15:22:06;3.13;;;2.05;;
71867;SDS011;59738;48.324;14.230;2023-02-21T15:24:38;2.67;;;1.83;;